Time;durP1;ratioP1;P1;durP2;ratioP2;P2;SDS_P1;SDS_P2;PMS_P1;PMS_P2;Temp;Humidity;BMP_temperature;BMP_pressure;BME280_temperature;BME280_humidity;BME280_pressure;Samples;Min_cycle;Max_cycle;Signal;HPM_P1;HPM_P2
2022/01/01 00:02:02;;;;;;;;;;;;;;;11.90;100.00;102330.84;4988463;28;19914;-69
2022/01/01 00:04:27;;;;;;;;;;;;;;;11.86;100.00;102339.22;4989006;28;19918;-68
2022/01/01 00:06:52;;;;;;;;;;;;;;;11.85;100.00;102342.63;4990062;28;19925;-68
2022/01/01 00:09:17;;;;;;;;;;;;;;;11.87;100.00;102334.97;4987753;28;20504;-67
2022/01/01 00:11:43;;;;;;;;;;;;;;;11.89;100.00;102349.69;4994790;28;19922;-68
2022/01/01 00:14:08;;;;;;;;;;;;;;;11.87;100.00;102353.00;4989607;28;19973;-67
2022/01/01 00:16:33;;;;;;;;;;;;;;;11.89;100.00;102343.63;4990341;28;20416;-68
2022/01/01 00:18:58;;;;;;;;;;;;;;;11.97;100.00;102353.50;4996020;28;19924;-69
2022/01/01 00:21:24;;;;;;;;;;;;;;;11.95;100.00;102351.66;4992525;28;20447;-69
2022/01/01 00:23:49;;;;;;;;;;;;;;;11.93;100.00;102371.31;4990841;28;19914;-68
2022/01/01 00:26:14;;;;;;;;;;;;;;;11.93;100.00;102361.91;4980363;28;20592;-67
2022/01/01 00:28:40;;;;;;;;;;;;;;;11.93;100.00;102361.91;4998622;28;20388;-68
2022/01/01 00:31:07;;;;;;;;;;;;;;;11.98;100.00;102354.38;4990117;28;19929;-67
2022/01/01 00:33:32;;;;;;;;;;;;;;;11.94;100.00;102360.19;4987938;28;19929;-70
2022/01/01 00:35:57;;;;;;;;;;;;;;;11.92;100.00;102359.25;4982837;28;19948;-68
2022/01/01 00:38:23;;;;;;;;;;;;;;;11.98;100.00;102364.69;4989655;28;20012;-68
2022/01/01 00:40:48;;;;;;;;;;;;;;;11.95;100.00;102359.38;4990125;28;20008;-69
2022/01/01 00:43:13;;;;;;;;;;;;;;;12.02;100.00;102352.03;4988676;28;19995;-70
2022/01/01 00:45:39;;;;;;;;;;;;;;;11.98;100.00;102356.97;4989029;28;19936;-68
2022/01/01 00:48:04;;;;;;;;;;;;;;;12.00;100.00;102347.59;4986579;28;19922;-67
2022/01/01 00:50:29;;;;;;;;;;;;;;;11.97;100.00;102352.63;4988676;28;19918;-68
2022/01/01 00:52:55;;;;;;;;;;;;;;;11.99;100.00;102350.97;4989729;28;19926;-68
2022/01/01 00:55:20;;;;;;;;;;;;;;;11.95;100.00;102339.66;4989887;28;19922;-70
2022/01/01 00:57:47;;;;;;;;;;;;;;;11.97;100.00;102342.31;4987886;28;19956;-67
2022/01/01 01:00:12;;;;;;;;;;;;;;;11.96;100.00;102345.69;4978331;28;20456;-67
2022/01/01 01:02:38;;;;;;;;;;;;;;;11.94;100.00;102347.31;4991916;28;19989;-69
2022/01/01 01:05:03;;;;;;;;;;;;;;;12.04;100.00;102352.97;4982743;28;19922;-69
2022/01/01 01:07:28;;;;;;;;;;;;;;;11.99;100.00;102351.88;4993144;28;19925;-69
2022/01/01 01:09:54;;;;;;;;;;;;;;;11.99;100.00;102348.41;4993194;28;19929;-69
2022/01/01 01:12:24;;;;;;;;;;;;;;;11.97;100.00;102339.72;4989586;28;19918;-69
2022/01/01 01:14:49;;;;;;;;;;;;;;;11.97;100.00;102350.94;4995923;28;20289;-68
2022/01/01 01:17:15;;;;;;;;;;;;;;;11.96;100.00;102353.44;4988684;28;19918;-68
2022/01/01 01:19:40;;;;;;;;;;;;;;;11.95;100.00;102354.22;4997011;28;19926;-68
2022/01/01 01:22:05;;;;;;;;;;;;;;;11.95;100.00;102356.81;4989793;28;19922;-68
2022/01/01 01:24:32;;;;;;;;;;;;;;;11.94;100.00;102368.81;4988763;28;19921;-67
2022/01/01 01:27:01;;;;;;;;;;;;;;;11.90;100.00;102363.47;4988651;28;20021;-68
2022/01/01 01:29:26;;;;;;;;;;;;;;;11.95;100.00;102367.13;4986597;28;19925;-68
2022/01/01 01:31:52;;;;;;;;;;;;;;;11.91;100.00;102367.81;4992612;28;19925;-71
2022/01/01 01:34:17;;;;;;;;;;;;;;;11.89;100.00;102365.16;4987283;28;19918;-68
2022/01/01 01:36:42;;;;;;;;;;;;;;;11.87;100.00;102371.03;4994376;28;19914;-68
2022/01/01 01:39:07;;;;;;;;;;;;;;;11.89;100.00;102369.41;4992716;28;19922;-68
2022/01/01 01:41:33;;;;;;;;;;;;;;;11.87;100.00;102359.03;4996898;28;20320;-69
2022/01/01 01:43:58;;;;;;;;;;;;;;;11.86;100.00;102364.13;4991807;28;20505;-69
2022/01/01 01:46:25;;;;;;;;;;;;;;;11.86;100.00;102370.16;4989792;28;19979;-70
2022/01/01 01:48:51;;;;;;;;;;;;;;;11.84;100.00;102376.94;4986179;28;19924;-70
2022/01/01 01:51:16;;;;;;;;;;;;;;;11.83;100.00;102388.06;4989488;28;19923;-69
2022/01/01 01:53:42;;;;;;;;;;;;;;;11.82;100.00;102378.56;4987904;28;19934;-68
2022/01/01 01:56:07;;;;;;;;;;;;;;;11.81;100.00;102382.81;4984285;28;20381;-68
2022/01/01 01:58:33;;;;;;;;;;;;;;;11.82;100.00;102388.84;4988670;28;19961;-69
2022/01/01 02:03:32;;;;;;;;;;;;;;;11.83;100.00;102390.66;4981952;28;19930;-69
2022/01/01 02:05:58;;;;;;;;;;;;;;;11.81;100.00;102392.25;4981160;28;19930;-69
2022/01/01 02:08:24;;;;;;;;;;;;;;;11.82;100.00;102392.31;4983651;28;20385;-68
2022/01/01 02:10:52;;;;;;;;;;;;;;;11.86;100.00;102384.75;4988077;28;19925;-67
2022/01/01 02:13:29;;;;;;;;;;;;;;;11.82;100.00;102381.13;4982903;28;20365;-68
2022/01/01 02:18:20;;;;;;;;;;;;;;;11.82;100.00;102386.28;4985375;28;19941;-67
2022/01/01 02:20:49;;;;;;;;;;;;;;;11.80;100.00;102388.75;4986176;28;19969;-69
2022/01/01 02:23:21;;;;;;;;;;;;;;;11.81;100.00;102385.41;4982022;28;20005;-68
2022/01/01 02:25:48;;;;;;;;;;;;;;;11.81;100.00;102371.63;4987085;28;20000;-69
2022/01/01 02:28:13;;;;;;;;;;;;;;;11.82;100.00;102371.69;4982122;28;20020;-70
2022/01/01 02:30:38;;;;;;;;;;;;;;;11.81;100.00;102371.63;4984715;28;20005;-68
2022/01/01 02:33:04;;;;;;;;;;;;;;;11.79;100.00;102378.38;4984941;28;20381;-68
2022/01/01 02:35:29;;;;;;;;;;;;;;;11.78;100.00;102374.94;4984158;28;19929;-71
2022/01/01 02:37:54;;;;;;;;;;;;;;;11.88;100.00;102371.09;4985017;28;19969;-69
2022/01/01 02:40:20;;;;;;;;;;;;;;;11.81;100.00;102377.66;4978029;28;19933;-68
2022/01/01 02:42:45;;;;;;;;;;;;;;;11.80;100.00;102373.28;4981802;28;20389;-68
2022/01/01 02:45:11;;;;;;;;;;;;;;;11.81;100.00;102374.22;4985181;28;20008;-69
2022/01/01 02:47:37;;;;;;;;;;;;;;;11.82;100.00;102374.28;4983521;28;19940;-71
2022/01/01 02:50:02;;;;;;;;;;;;;;;11.88;100.00;102367.66;4985422;28;20297;-69
2022/01/01 02:52:28;;;;;;;;;;;;;;;11.92;100.00;102364.41;4983024;28;19941;-68
2022/01/01 02:54:53;;;;;;;;;;;;;;;11.86;100.00;102358.97;4981310;28;19969;-69
2022/01/01 02:57:18;;;;;;;;;;;;;;;11.90;100.00;102350.56;4984230;28;19929;-69
2022/01/01 02:59:44;;;;;;;;;;;;;;;11.95;100.00;102355.13;4984227;28;19933;-68
2022/01/01 03:02:09;;;;;;;;;;;;;;;11.96;100.00;102345.69;4984467;28;19936;-71
2022/01/01 03:04:34;;;;;;;;;;;;;;;11.95;100.00;102344.81;4984395;28;20304;-72
2022/01/01 03:07:00;;;;;;;;;;;;;;;11.99;100.00;102338.97;4985109;28;19929;-67
2022/01/01 03:09:33;;;;;;;;;;;;;;;11.95;100.00;102337.09;4981149;28;20403;-70
2022/01/01 03:11:58;;;;;;;;;;;;;;;11.96;100.00;102345.69;4983828;28;19977;-67
2022/01/01 03:14:23;;;;;;;;;;;;;;;11.91;100.00;102344.59;4977042;28;20100;-68
2022/01/01 03:16:49;;;;;;;;;;;;;;;11.92;100.00;102351.53;4982648;28;19976;-68
2022/01/01 03:19:14;;;;;;;;;;;;;;;11.91;100.00;102349.75;4984184;28;19936;-69
2022/01/01 03:21:39;;;;;;;;;;;;;;;11.86;100.00;102352.13;4985162;28;19933;-68
2022/01/01 03:24:05;;;;;;;;;;;;;;;11.91;100.00;102349.75;4983656;28;20061;-69
2022/01/01 03:26:31;;;;;;;;;;;;;;;12.03;100.00;102343.47;4988404;28;19925;-69
2022/01/01 03:28:56;;;;;;;;;;;;;;;11.99;100.00;102351.88;4987140;28;20453;-68
2022/01/01 03:31:24;;;;;;;;;;;;;;;11.89;100.00;102338.47;4983826;28;19926;-71
2022/01/01 03:33:50;;;;;;;;;;;;;;;11.90;100.00;102341.16;4984518;28;20268;-70
2022/01/01 03:36:15;;;;;;;;;;;;;;;11.88;100.00;102341.88;4982600;28;19925;-70
2022/01/01 03:38:40;;;;;;;;;;;;;;;11.90;100.00;102342.84;4984351;28;19922;-69
2022/01/01 03:41:05;;;;;;;;;;;;;;;11.87;100.00;102340.09;4984499;28;19944;-66
2022/01/01 03:43:31;;;;;;;;;;;;;;;11.89;100.00;102338.47;4982781;28;19918;-69
2022/01/01 03:45:56;;;;;;;;;;;;;;;11.82;100.00;102345.03;4980933;28;20008;-70
2022/01/01 03:48:21;;;;;;;;;;;;;;;11.74;100.00;102344.66;4974926;28;19930;-69
2022/01/01 03:50:46;;;;;;;;;;;;;;;11.73;100.00;102340.31;4982079;28;21461;-70
2022/01/01 03:53:12;;;;;;;;;;;;;;;11.77;100.00;102328.47;4983947;28;19944;-69
2022/01/01 03:55:37;;;;;;;;;;;;;;;11.76;100.00;102331.84;4982083;28;19957;-69
2022/01/01 03:58:02;;;;;;;;;;;;;;;11.75;100.00;102337.81;4982982;28;19933;-70
2022/01/01 04:00:28;;;;;;;;;;;;;;;11.82;100.00;102327.00;4983702;28;19930;-70
2022/01/01 04:02:53;;;;;;;;;;;;;;;11.79;100.00;102329.41;4983623;28;19925;-69
2022/01/01 04:05:18;;;;;;;;;;;;;;;11.79;100.00;102337.16;4982326;28;20443;-68
2022/01/01 04:07:43;;;;;;;;;;;;;;;11.80;100.00;102344.94;4983473;28;19965;-69
2022/01/01 04:10:09;;;;;;;;;;;;;;;11.81;100.00;102344.16;4982715;28;19925;-69
2022/01/01 04:12:34;;;;;;;;;;;;;;;11.87;100.00;102337.53;4984118;28;20413;-69
2022/01/01 04:15:01;;;;;;;;;;;;;;;11.88;100.00;102334.13;4983656;28;19983;-69
2022/01/01 04:17:27;;;;;;;;;;;;;;;11.87;100.00;102332.38;4981255;28;19928;-69
2022/01/01 04:19:52;;;;;;;;;;;;;;;11.85;100.00;102329.75;4981337;28;20297;-68
2022/01/01 04:22:18;;;;;;;;;;;;;;;11.84;100.00;102329.69;4978045;28;19937;-68
2022/01/01 04:24:43;;;;;;;;;;;;;;;11.89;100.00;102323.91;4981449;28;19965;-69
2022/01/01 04:27:09;;;;;;;;;;;;;;;11.90;100.00;102324.81;4984576;28;19965;-68
2022/01/01 04:29:34;;;;;;;;;;;;;;;11.84;100.00;102327.09;4978951;28;19926;-68
2022/01/01 04:32:00;;;;;;;;;;;;;;;11.82;100.00;102332.16;4978182;28;19965;-72
2022/01/01 04:34:26;;;;;;;;;;;;;;;11.81;100.00;102330.41;4980044;28;19937;-69
2022/01/01 04:37:01;;;;;;;;;;;;;;;11.82;100.00;102333.03;4976944;28;20321;-68
2022/01/01 04:39:26;;;;;;;;;;;;;;;11.81;100.00;102330.41;4978982;28;19921;-70
2022/01/01 04:41:52;;;;;;;;;;;;;;;11.80;100.00;102342.38;4978550;28;19947;-70
2022/01/01 04:44:17;;;;;;;;;;;;;;;11.84;100.00;102340.88;4979494;28;19926;-69
2022/01/01 04:46:42;;;;;;;;;;;;;;;11.89;100.00;102338.47;4979272;28;19948;-68
2022/01/01 04:49:07;;;;;;;;;;;;;;;11.85;100.00;102334.00;4965611;28;19971;-68
2022/01/01 04:51:33;;;;;;;;;;;;;;;11.85;100.00;102339.16;4978761;28;20020;-71
2022/01/01 04:54:01;;;;;;;;;;;;;;;11.86;100.00;102352.13;4985074;28;19961;-69
2022/01/01 04:56:28;;;;;;;;;;;;;;;12.11;100.00;102343.81;4980489;28;19960;-71
2022/01/01 04:58:53;;;;;;;;;;;;;;;11.95;100.00;102343.91;4979238;28;20580;-70
2022/01/01 05:01:19;;;;;;;;;;;;;;;11.89;100.00;102339.38;4978666;28;19933;-68
2022/01/01 05:03:44;;;;;;;;;;;;;;;11.89;100.00;102346.22;4977806;28;19968;-69
2022/01/01 05:06:10;;;;;;;;;;;;;;;11.88;100.00;102354.75;4980910;28;19926;-68
2022/01/01 05:08:35;;;;;;;;;;;;;;;11.95;100.00;102344.81;4984784;28;19996;-69
2022/01/01 05:11:00;;;;;;;;;;;;;;;11.90;100.00;102351.47;4987533;28;20028;-67
2022/01/01 05:13:25;;;;;;;;;;;;;;;11.88;100.00;102354.75;4984136;28;19926;-68
2022/01/01 05:15:55;;;;;;;;;;;;;;;11.84;100.00;102363.19;4981768;28;21663;-67
2022/01/01 05:18:20;;;;;;;;;;;;;;;11.88;100.00;102355.63;4982037;28;19922;-69
2022/01/01 05:20:46;;;;;;;;;;;;;;;11.94;100.00;102352.47;4982891;28;19977;-67
2022/01/01 05:23:11;;;;;;;;;;;;;;;11.86;100.00;102358.97;4982682;28;19929;-68
2022/01/01 05:25:36;;;;;;;;;;;;;;;11.87;100.00;102355.56;4982400;28;19925;-70
2022/01/01 05:28:02;;;;;;;;;;;;;;;11.86;100.00;102353.81;4982674;28;20716;-69
2022/01/01 05:30:27;;;;;;;;;;;;;;;11.82;100.00;102351.06;4984256;28;19926;-69
2022/01/01 05:32:52;;;;;;;;;;;;;;;11.95;100.00;102354.22;4982222;28;19969;-70
2022/01/01 05:35:17;;;;;;;;;;;;;;;11.81;100.00;102362.22;4984092;28;20399;-68
2022/01/01 05:37:43;;;;;;;;;;;;;;;11.84;100.00;102361.47;4979630;28;19922;-68
2022/01/01 05:40:08;;;;;;;;;;;;;;;11.81;100.00;102354.47;4982740;28;19934;-69
2022/01/01 05:42:33;;;;;;;;;;;;;;;11.77;100.00;102355.13;4984783;28;19926;-70
2022/01/01 05:44:59;;;;;;;;;;;;;;;11.77;100.00;102355.13;4982164;28;19932;-70
2022/01/01 05:47:24;;;;;;;;;;;;;;;11.88;100.00;102363.38;4981818;28;19945;-68
2022/01/01 05:49:49;;;;;;;;;;;;;;;11.77;100.00;102349.97;4982768;28;19929;-68
2022/01/01 05:52:15;;;;;;;;;;;;;;;11.76;100.00;102353.34;4983000;28;19921;-68
2022/01/01 05:54:40;;;;;;;;;;;;;;;11.71;100.00;102349.69;4980438;28;19918;-71
2022/01/01 05:57:06;;;;;;;;;;;;;;;11.71;100.00;102353.94;4982408;28;19975;-68
2022/01/01 05:59:31;;;;;;;;;;;;;;;11.70;100.00;102347.00;4979409;28;20107;-69
2022/01/01 06:01:57;;;;;;;;;;;;;;;11.67;100.00;102350.34;4983372;28;19918;-72
2022/01/01 06:04:22;;;;;;;;;;;;;;;11.75;100.00;102351.56;4981992;28;19918;-68
2022/01/01 06:06:47;;;;;;;;;;;;;;;11.75;100.00;102340.38;4979668;28;20053;-69
2022/01/01 06:09:12;;;;;;;;;;;;;;;11.70;100.00;102337.59;4982318;28;19929;-69
2022/01/01 06:11:38;;;;;;;;;;;;;;;11.69;100.00;102335.81;4980340;28;20030;-70
2022/01/01 06:14:03;;;;;;;;;;;;;;;11.66;100.00;102327.97;4981512;28;19926;-69
2022/01/01 06:16:28;;;;;;;;;;;;;;;11.52;100.00;102321.25;4982301;28;19930;-67
2022/01/01 06:18:54;;;;;;;;;;;;;;;11.45;100.00;102335.56;4978730;28;20413;-68
2022/01/01 06:21:19;;;;;;;;;;;;;;;11.58;100.00;102337.00;4980086;28;19972;-68
2022/01/01 06:23:44;;;;;;;;;;;;;;;11.37;100.00;102334.31;4983654;28;19922;-67
2022/01/01 06:26:09;;;;;;;;;;;;;;;11.32;100.00;102332.31;4981737;28;19925;-69
2022/01/01 06:28:35;;;;;;;;;;;;;;;11.22;100.00;102341.28;4987898;28;19921;-69
2022/01/01 06:31:00;;;;;;;;;;;;;;;11.14;100.00;102342.59;4982285;28;19936;-72
2022/01/01 06:33:25;;;;;;;;;;;;;;;11.11;100.00;102348.50;4982374;28;19929;-69
2022/01/01 06:35:50;;;;;;;;;;;;;;;10.99;100.00;102350.47;4980786;28;20436;-68
2022/01/01 06:38:16;;;;;;;;;;;;;;;11.00;100.00;102355.69;4979816;28;19976;-72
2022/01/01 06:40:42;;;;;;;;;;;;;;;10.86;100.00;102350.63;4983272;28;20476;-68
2022/01/01 06:43:09;;;;;;;;;;;;;;;10.91;100.00;102344.03;4980045;28;19926;-69
2022/01/01 06:45:34;;;;;;;;;;;;;;;10.89;100.00;102345.66;4982110;28;19932;-68
2022/01/01 06:48:00;;;;;;;;;;;;;;;11.10;100.00;102346.75;4982304;28;20029;-68
2022/01/01 06:50:25;;;;;;;;;;;;;;;11.02;100.00;102345.44;4982774;28;19933;-69
2022/01/01 06:52:51;;;;;;;;;;;;;;;11.02;100.00;102353.16;4982158;28;19926;-68
2022/01/01 06:55:16;;;;;;;;;;;;;;;10.94;100.00;102362.22;4963539;28;19926;-68
2022/01/01 06:57:42;;;;;;;;;;;;;;;10.91;100.00;102352.63;4980254;28;19917;-68
2022/01/01 07:00:07;;;;;;;;;;;;;;;11.01;100.00;102353.97;4980504;28;19921;-69
2022/01/01 07:02:44;;;;;;;;;;;;;;;11.07;100.00;102356.88;4981400;28;20399;-68
2022/01/01 07:05:10;;;;;;;;;;;;;;;11.04;100.00;102361.84;4980609;28;20875;-67
2022/01/01 07:07:35;;;;;;;;;;;;;;;11.09;100.00;102369.81;4982548;28;19925;-68
2022/01/01 07:10:01;;;;;;;;;;;;;;;11.08;100.00;102375.75;4979930;28;19933;-70
2022/01/01 07:12:26;;;;;;;;;;;;;;;11.15;100.00;102378.72;4980591;28;20281;-69
2022/01/01 07:14:51;;;;;;;;;;;;;;;11.18;100.00;102378.00;4978757;28;19922;-68
2022/01/01 07:17:17;;;;;;;;;;;;;;;11.22;100.00;102378.22;4980320;28;19961;-67
2022/01/01 07:19:42;;;;;;;;;;;;;;;11.27;100.00;102376.75;4980361;28;19937;-67
2022/01/01 07:22:07;;;;;;;;;;;;;;;11.28;100.00;102373.38;4978584;28;20464;-71
2022/01/01 07:24:33;;;;;;;;;;;;;;;11.33;99.95;102377.84;4980081;28;20360;-68
2022/01/01 07:26:58;;;;;;;;;;;;;;;11.42;100.00;102378.31;4977874;28;20348;-75
2022/01/01 07:29:23;;;;;;;;;;;;;;;11.37;99.81;102382.38;4983424;28;20430;-75
2022/01/01 07:31:52;;;;;;;;;;;;;;;11.43;99.58;102383.53;4983192;28;20083;-75
2022/01/01 07:34:18;;;;;;;;;;;;;;;11.40;99.95;102374.75;4979038;28;20009;-75
2022/01/01 07:36:43;;;;;;;;;;;;;;;11.48;99.25;102381.19;4981338;28;20032;-75
2022/01/01 07:39:10;;;;;;;;;;;;;;;11.47;99.66;102382.00;4977891;28;19930;-75
2022/01/01 07:41:36;;;;;;;;;;;;;;;11.55;98.35;102384.13;4980152;28;19933;-75
2022/01/01 07:44:02;;;;;;;;;;;;;;;11.52;98.11;102393.41;4978797;28;19968;-73
2022/01/01 07:46:27;;;;;;;;;;;;;;;11.56;98.61;102390.16;4981220;28;19926;-75
2022/01/01 07:48:52;;;;;;;;;;;;;;;11.52;98.44;102402.00;4978678;28;19922;-75
2022/01/01 07:51:18;;;;;;;;;;;;;;;11.48;98.44;102402.69;4978619;28;19936;-75
2022/01/01 07:53:43;;;;;;;;;;;;;;;11.59;98.07;102402.28;4981454;28;20028;-74
2022/01/01 07:56:08;;;;;;;;;;;;;;;11.52;98.16;102399.44;4975913;28;19937;-75
2022/01/01 07:58:33;;;;;;;;;;;;;;;11.60;97.88;102410.13;4978562;28;19946;-76
2022/01/01 08:00:59;;;;;;;;;;;;;;;11.57;97.81;102411.66;4978952;28;20363;-76
2022/01/01 08:03:25;;;;;;;;;;;;;;;11.57;98.10;102404.81;4980930;28;19955;-75
2022/01/01 08:05:50;;;;;;;;;;;;;;;11.55;97.01;102414.16;4978967;28;19969;-75
2022/01/01 08:08:15;;;;;;;;;;;;;;;11.63;98.05;102407.69;4977786;28;19972;-73
2022/01/01 08:10:40;;;;;;;;;;;;;;;11.61;97.83;102414.47;4980667;28;19937;-73
2022/01/01 08:13:08;;;;;;;;;;;;;;;11.68;97.34;102411.38;4978380;28;20340;-74
2022/01/01 08:15:33;;;;;;;;;;;;;;;11.65;97.73;102416.38;4980931;28;19961;-74
2022/01/01 08:17:58;;;;;;;;;;;;;;;11.65;96.86;102413.81;4978237;28;19925;-75
2022/01/01 08:20:24;;;;;;;;;;;;;;;11.72;97.22;102415.88;4978724;28;20384;-75
2022/01/01 08:22:49;;;;;;;;;;;;;;;11.76;96.79;102409.16;4978602;28;19949;-76
2022/01/01 08:25:16;;;;;;;;;;;;;;;11.79;96.54;102405.03;4980101;28;21271;-76
2022/01/01 08:27:42;;;;;;;;;;;;;;;11.90;95.86;102412.44;4978454;28;19933;-75
2022/01/01 08:30:07;;;;;;;;;;;;;;;11.84;96.41;102407.00;4979488;28;20472;-74
2022/01/01 08:32:32;;;;;;;;;;;;;;;11.80;96.65;102411.94;4980580;28;20492;-75
2022/01/01 08:34:58;;;;;;;;;;;;;;;11.87;96.00;102407.13;4981355;28;19926;-75
2022/01/01 08:37:23;;;;;;;;;;;;;;;11.99;95.17;102399.97;4979068;28;19925;-75
2022/01/01 08:39:48;;;;;;;;;;;;;;;11.92;95.49;102393.66;4982390;28;19933;-74
2022/01/01 08:42:14;;;;;;;;;;;;;;;11.97;94.84;102393.88;4981980;28;19923;-75
2022/01/01 08:44:45;;;;;;;;;;;;;;;11.95;95.43;102403.19;4984143;28;19930;-75
2022/01/01 08:47:11;;;;;;;;;;;;;;;11.91;95.53;102404.78;4981279;28;19921;-74
2022/01/01 08:49:36;;;;;;;;;;;;;;;11.90;94.75;102403.00;4981871;28;19926;-73
2022/01/01 08:52:01;;;;;;;;;;;;;;;11.95;95.51;102410.94;4980702;28;19937;-75
2022/01/01 08:54:27;;;;;;;;;;;;;;;11.98;95.22;102405.94;4980897;28;20058;-75
2022/01/01 08:56:52;;;;;;;;;;;;;;;11.99;95.06;102408.59;4987215;28;19930;-74
2022/01/01 08:59:18;;;;;;;;;;;;;;;11.95;94.30;102411.84;4985715;28;19929;-74
2022/01/01 09:01:43;;;;;;;;;;;;;;;11.94;94.58;102404.91;4985646;28;19949;-74
2022/01/01 09:04:08;;;;;;;;;;;;;;;12.15;93.93;102406.72;4984311;28;19964;-74
2022/01/01 09:06:34;;;;;;;;;;;;;;;11.91;94.97;102397.03;4986367;28;19930;-76
2022/01/01 09:08:59;;;;;;;;;;;;;;;11.88;95.52;102399.47;4983840;28;19976;-77
2022/01/01 09:11:25;;;;;;;;;;;;;;;12.04;94.38;102404.53;4986686;28;20427;-76
2022/01/01 09:13:50;;;;;;;;;;;;;;;11.96;94.23;102397.25;4983806;28;19941;-76
2022/01/01 09:16:17;;;;;;;;;;;;;;;11.96;95.09;102384.38;4986918;28;20029;-74
2022/01/01 09:18:43;;;;;;;;;;;;;;;12.06;94.17;102391.69;4985261;28;19918;-75
2022/01/01 09:21:09;;;;;;;;;;;;;;;12.02;94.47;102401.00;4988352;28;19991;-75
2022/01/01 09:23:34;;;;;;;;;;;;;;;12.04;94.67;102393.34;4985335;28;19925;-74
2022/01/01 09:26:01;;;;;;;;;;;;;;;12.10;94.19;102387.59;4985727;28;19996;-75
2022/01/01 09:28:27;;;;;;;;;;;;;;;12.13;94.09;102383.44;4986579;28;19980;-75
2022/01/01 09:30:52;;;;;;;;;;;;;;;12.20;93.55;102382.03;4985452;28;20008;-76
2022/01/01 09:33:17;;;;;;;;;;;;;;;12.25;93.81;102378.81;4983147;28;19968;-76
2022/01/01 09:35:43;;;;;;;;;;;;;;;12.36;92.89;102376.75;4985524;28;20024;-75
2022/01/01 09:38:08;;;;;;;;;;;;;;;12.52;92.10;102373.16;4984255;28;19953;-76
2022/01/01 09:40:33;;;;;;;;;;;;;;;12.61;92.21;102379.59;4988904;28;19933;-75
2022/01/01 09:42:59;;;;;;;;;;;;;;;12.76;91.14;102387.13;4986380;28;19926;-74
2022/01/01 09:45:24;;;;;;;;;;;;;;;12.88;91.02;102377.34;4985981;28;19918;-74
2022/01/01 09:47:50;;;;;;;;;;;;;;;12.95;91.19;102378.47;4990690;28;19917;-74
2022/01/01 09:50:15;;;;;;;;;;;;;;;13.02;89.62;102377.91;4986262;28;19929;-73
2022/01/01 09:52:41;;;;;;;;;;;;;;;12.97;89.72;102382.00;4988082;28;19934;-74
2022/01/01 09:55:06;;;;;;;;;;;;;;;12.96;89.98;102376.78;4984830;28;19925;-76
2022/01/01 09:57:31;;;;;;;;;;;;;;;13.03;88.89;102377.09;4988950;28;19930;-75
2022/01/01 09:59:57;;;;;;;;;;;;;;;12.85;88.83;102373.72;4985648;28;20032;-74
2022/01/01 10:02:23;;;;;;;;;;;;;;;12.83;89.91;102377.94;4984145;28;19918;-75
2022/01/01 10:04:50;;;;;;;;;;;;;;;13.06;88.93;102381.50;4989961;28;20373;-75
2022/01/01 10:07:16;;;;;;;;;;;;;;;13.46;88.18;102384.06;4991557;28;19924;-74
2022/01/01 10:09:41;;;;;;;;;;;;;;;13.91;86.20;102368.59;4988038;28;20905;-73
2022/01/01 10:12:09;;;;;;;;;;;;;;;14.21;84.26;102354.25;4986082;28;19922;-73
2022/01/01 10:14:39;;;;;;;;;;;;;;;14.59;84.60;102343.53;4983057;28;20027;-73
2022/01/01 10:17:23;;;;;;;;;;;;;;;14.97;81.57;102343.13;4985562;28;19947;-74
2022/01/01 10:19:51;;;;;;;;;;;;;;;15.24;80.70;102334.53;4987836;28;20028;-74
2022/01/01 10:22:21;;;;;;;;;;;;;;;15.58;81.57;102336.44;4990342;28;19917;-74
2022/01/01 10:27:45;;;;;;;;;;;;;;;15.25;79.36;102336.28;4976849;28;19928;-74
2022/01/01 10:30:22;;;;;;;;;;;;;;;15.10;78.48;102338.34;4992022;28;20328;-74
2022/01/01 10:33:08;;;;;;;;;;;;;;;14.96;79.76;102324.94;4984485;28;19929;-75
2022/01/01 10:35:42;;;;;;;;;;;;;;;14.88;80.94;102329.88;4984931;28;19925;-74
2022/01/01 10:38:19;;;;;;;;;;;;;;;15.00;79.09;102327.69;4987733;28;19968;-75
2022/01/01 10:40:45;;;;;;;;;;;;;;;15.26;78.18;102330.25;4985757;28;19922;-74
2022/01/01 10:43:11;;;;;;;;;;;;;;;15.48;76.41;102329.22;4981698;28;20049;-74
2022/01/01 10:45:41;;;;;;;;;;;;;;;15.54;76.03;102309.56;4984174;28;19981;-74
2022/01/01 10:48:21;;;;;;;;;;;;;;;15.66;76.07;102301.31;4987229;28;19924;-74
2022/01/01 10:50:47;;;;;;;;;;;;;;;15.83;75.15;102301.78;4983662;28;19956;-74
2022/01/01 10:53:14;;;;;;;;;;;;;;;15.80;73.85;102289.63;4984576;28;19928;-74
2022/01/01 10:55:40;;;;;;;;;;;;;;;15.57;74.95;102294.09;4986923;28;20625;-73
2022/01/01 10:58:05;;;;;;;;;;;;;;;15.32;77.05;102306.25;4986036;28;20012;-74
2022/01/01 11:00:38;;;;;;;;;;;;;;;15.25;76.52;102305.19;4988167;28;19925;-74
2022/01/01 11:03:04;;;;;;;;;;;;;;;15.01;77.30;102295.78;4984265;28;19965;-73
2022/01/01 11:05:31;;;;;;;;;;;;;;;14.86;77.74;102307.34;4989874;28;20351;-74
2022/01/01 11:07:57;;;;;;;;;;;;;;;14.60;78.77;102291.81;4983625;28;19934;-74
2022/01/01 11:10:23;;;;;;;;;;;;;;;14.44;79.47;102294.69;4991167;28;19943;-74
2022/01/01 11:12:48;;;;;;;;;;;;;;;14.29;81.02;102297.59;4988345;28;19945;-74
2022/01/01 11:15:14;;;;;;;;;;;;;;;14.37;80.57;102303.91;4986429;28;19921;-74
2022/01/01 11:17:41;;;;;;;;;;;;;;;14.97;79.39;102291.31;4990654;28;19926;-74
2022/01/01 11:20:07;;;;;;;;;;;;;;;16.33;76.22;102291.97;4985735;28;19938;-74
2022/01/01 11:22:32;;;;;;;;;;;;;;;17.33;73.70;102283.25;4986473;28;19957;-74
2022/01/01 11:24:58;;;;;;;;;;;;;;;17.65;70.37;102283.06;4988947;28;19988;-76
2022/01/01 11:27:25;;;;;;;;;;;;;;;17.66;69.29;102277.06;4991198;28;19988;-74
2022/01/01 11:29:52;;;;;;;;;;;;;;;17.41;69.86;102278.22;4992145;28;19976;-74
2022/01/01 11:32:28;;;;;;;;;;;;;;;17.45;69.20;102264.44;4985230;28;19965;-74
2022/01/01 11:34:54;;;;;;;;;;;;;;;18.05;68.04;102268.34;4990207;28;19917;-74
2022/01/01 11:37:22;;;;;;;;;;;;;;;18.25;69.27;102276.53;4991756;28;20466;-75
2022/01/01 11:39:47;;;;;;;;;;;;;;;17.83;67.40;102273.09;4986703;28;19930;-74
2022/01/01 11:42:13;;;;;;;;;;;;;;;17.35;69.26;102280.69;4986047;28;19925;-74
2022/01/01 11:44:42;;;;;;;;;;;;;;;16.87;72.18;102289.09;4984036;28;20071;-74
2022/01/01 11:47:16;;;;;;;;;;;;;;;16.53;72.06;102289.91;4987676;28;20596;-76
2022/01/01 11:49:41;;;;;;;;;;;;;;;16.19;71.83;102285.50;4986953;28;19933;-74
2022/01/01 11:52:07;;;;;;;;;;;;;;;15.81;73.29;102288.78;4982919;28;20548;-76
2022/01/01 11:54:42;;;;;;;;;;;;;;;15.56;74.35;102274.19;4982723;28;20060;-75
2022/01/01 11:57:09;;;;;;;;;;;;;;;15.37;74.72;102269.28;4982325;28;19954;-75
2022/01/01 11:59:37;;;;;;;;;;;;;;;15.01;75.71;102271.59;4982890;28;20009;-75
2022/01/01 12:02:04;;;;;;;;;;;;;;;14.96;76.24;102261.06;4982622;28;19972;-75
2022/01/01 12:04:38;;;;;;;;;;;;;;;14.72;77.40;102263.75;4968575;28;19922;-75
2022/01/01 12:07:18;;;;;;;;;;;;;;;14.58;77.86;102274.47;4986525;28;19953;-76
2022/01/01 12:10:02;;;;;;;;;;;;;;;14.56;78.36;102271.84;4984760;28;19925;-75
2022/01/01 12:12:42;;;;;;;;;;;;;;;14.39;78.77;102276.41;4984804;28;20009;-75
2022/01/01 12:15:09;;;;;;;;;;;;;;;14.39;78.78;102271.22;4983948;28;19926;-75
2022/01/01 12:17:53;;;;;;;;;;;;;;;14.30;79.22;102262.25;4982560;28;19921;-73
2022/01/01 12:20:32;;;;;;;;;;;;;;;14.20;80.24;102263.66;4983661;28;20017;-75
2022/01/01 12:23:00;;;;;;;;;;;;;;;14.31;79.53;102254.53;4982666;28;19918;-74
2022/01/01 12:25:27;;;;;;;;;;;;;;;14.17;80.35;102256.63;4979835;28;20008;-74
2022/01/01 12:27:54;;;;;;;;;;;;;;;14.19;80.51;102254.97;4980524;28;19926;-77
2022/01/01 12:30:34;;;;;;;;;;;;;;;14.19;80.68;102251.50;4986914;28;20372;-76
2022/01/01 12:33:00;;;;;;;;;;;;;;;14.04;81.62;102248.41;4984658;28;19926;-75
2022/01/01 12:35:40;;;;;;;;;;;;;;;14.09;81.85;102249.44;4984591;28;19934;-76